Time;durP1;ratioP1;P1;durP2;ratioP2;P2;SDS_P1;SDS_P2;PMS_P1;PMS_P2;Temp;Humidity;BMP_temperature;BMP_pressure;BME280_temperature;BME280_humidity;BME280_pressure;Samples;Min_cycle;Max_cycle;Signal;HPM_P1;HPM_P2
2022/01/12 00:01:33;;;;;;;;;;;22.90;74.10;;;;;;4940312;28;97698;-60
2022/01/12 00:04:03;;;;;;;;;;;23.00;74.30;;;;;;4947853;28;95745;-58
2022/01/12 00:06:34;;;;;;;;;;;23.10;74.50;;;;;;4938470;28;97311;-60
2022/01/12 00:09:08;;;;;;;;;;;23.10;73.90;;;;;;4932245;28;97019;-60
2022/01/12 00:11:38;;;;;;;;;;;23.20;73.90;;;;;;4946430;28;96050;-59
2022/01/12 00:14:12;;;;;;;;;;;23.30;73.60;;;;;;4947375;28;95766;-60
2022/01/12 00:16:48;;;;;;;;;;;23.40;73.70;;;;;;4941830;28;95691;-61
2022/01/12 00:19:22;;;;;;;;;;;23.40;73.80;;;;;;4949015;28;96015;-61
2022/01/12 00:22:00;;;;;;;;;;;23.50;73.40;;;;;;4947252;28;96501;-60
2022/01/12 00:25:02;;;;;;;;;;;23.50;73.70;;;;;;4946442;28;96030;-60
2022/01/12 00:33:14;;;;;;;;;;;23.60;72.70;;;;;;4960955;28;102554;-59
2022/01/12 00:35:46;;;;;;;;;;;23.70;72.50;;;;;;4945827;28;96796;-60
2022/01/12 00:38:17;;;;;;;;;;;23.80;73.10;;;;;;4947565;28;95855;-60
2022/01/12 00:40:49;;;;;;;;;;;23.80;72.20;;;;;;4947688;28;95987;-59
2022/01/12 00:43:20;;;;;;;;;;;23.80;71.80;;;;;;4960647;28;97741;-60
2022/01/12 00:45:52;;;;;;;;;;;23.80;71.40;;;;;;4935184;28;96664;-59
2022/01/12 00:48:24;;;;;;;;;;;23.70;70.70;;;;;;4927667;28;96910;-58
2022/01/12 00:50:56;;;;;;;;;;;23.70;70.20;;;;;;4928443;28;96630;-59
2022/01/12 00:53:29;;;;;;;;;;;23.70;69.80;;;;;;4926893;28;97339;-58
2022/01/12 00:56:01;;;;;;;;;;;23.70;69.40;;;;;;4958544;28;96489;-62
2022/01/12 00:58:37;;;;;;;;;;;23.80;68.80;;;;;;4928172;28;95833;-59
2022/01/12 01:01:07;;;;;;;;;;;23.80;68.40;;;;;;4938622;28;97927;-61
2022/01/12 01:03:37;;;;;;;;;;;23.90;67.90;;;;;;4944433;28;96692;-58
2022/01/12 01:06:11;;;;;;;;;;;23.90;66.90;;;;;;4950455;28;95874;-57
2022/01/12 01:08:43;;;;;;;;;;;24.00;66.60;;;;;;4943753;28;96199;-57
2022/01/12 01:11:15;;;;;;;;;;;24.00;66.10;;;;;;4944917;28;95893;-61
2022/01/12 01:14:10;;;;;;;;;;;24.10;65.30;;;;;;4947763;28;96434;-60
2022/01/12 01:25:30;;;;;;;;;;;24.20;64.40;;;;;;4943620;28;98509;-59
2022/01/12 01:27:57;;;;;;;;;;;24.20;63.60;;;;;;4962792;28;98192;-56
2022/01/12 01:30:28;;;;;;;;;;;24.20;63.50;;;;;;4972828;28;95778;-60
2022/01/12 01:33:05;;;;;;;;;;;24.20;63.40;;;;;;4962858;28;96018;-56
2022/01/12 01:35:37;;;;;;;;;;;24.20;62.80;;;;;;4946740;28;97145;-59
2022/01/12 01:38:07;;;;;;;;;;;24.20;62.70;;;;;;4963192;28;95816;-57
2022/01/12 01:40:38;;;;;;;;;;;24.20;62.70;;;;;;4947039;28;98101;-56
2022/01/12 01:43:21;;;;;;;;;;;24.20;62.20;;;;;;4945478;28;96710;-60
2022/01/12 01:54:24;;;;;;;;;;;24.60;62.10;;;;;;4961358;28;96686;-59
2022/01/12 01:56:54;;;;;;;;;;;24.70;62.00;;;;;;4928628;28;96373;-58
2022/01/12 01:59:25;;;;;;;;;;;24.80;61.50;;;;;;4959724;28;95829;-60
2022/01/12 02:01:57;;;;;;;;;;;24.80;61.20;;;;;;4937721;28;95335;-59
2022/01/12 02:04:27;;;;;;;;;;;24.80;61.00;;;;;;4926822;28;96207;-59
2022/01/12 02:06:58;;;;;;;;;;;24.80;60.60;;;;;;4916845;28;95856;-58
2022/01/12 02:09:29;;;;;;;;;;;24.70;60.00;;;;;;4959426;28;96566;-59
2022/01/12 02:12:14;;;;;;;;;;;24.70;60.40;;;;;;4927265;28;95804;-59
2022/01/12 02:14:45;;;;;;;;;;;24.70;59.90;;;;;;4923837;28;96611;-57
2022/01/12 02:17:20;;;;;;;;;;;24.70;59.40;;;;;;4918489;28;96079;-58
2022/01/12 02:20:14;;;;;;;;;;;24.60;59.20;;;;;;4942140;28;96408;-57
2022/01/12 02:39:54;;;;;;;;;;;24.50;58.70;;;;;;4931006;28;97217;-59
2022/01/12 02:42:25;;;;;;;;;;;24.50;58.60;;;;;;4948593;28;95766;-58
2022/01/12 02:50:45;;;;;;;;;;;24.50;58.10;;;;;;4946007;28;95464;-56
2022/01/12 02:56:07;;;;;;;;;;;24.50;57.60;;;;;;4960147;28;96017;-58
2022/01/12 02:58:40;;;;;;;;;;;24.50;57.60;;;;;;4951255;28;96684;-60
2022/01/12 03:04:02;;;;;;;;;;;24.60;57.30;;;;;;4964380;28;96362;-58
2022/01/12 03:06:36;;;;;;;;;;;24.60;57.20;;;;;;4940148;28;96249;-59
2022/01/12 03:09:09;;;;;;;;;;;24.60;56.90;;;;;;4948672;28;96199;-60
2022/01/12 03:11:40;;;;;;;;;;;24.60;56.80;;;;;;4941188;28;96485;-59
2022/01/12 03:14:12;;;;;;;;;;;24.60;56.90;;;;;;4949498;28;95669;-57
2022/01/12 03:16:44;;;;;;;;;;;24.60;56.90;;;;;;4959056;28;96582;-59
2022/01/12 03:19:22;;;;;;;;;;;24.60;56.50;;;;;;4949371;28;96143;-56
2022/01/12 03:21:52;;;;;;;;;;;24.60;56.70;;;;;;4947526;28;97477;-60
2022/01/12 03:24:23;;;;;;;;;;;24.60;56.50;;;;;;4945909;28;96150;-57
2022/01/12 03:26:53;;;;;;;;;;;24.70;56.30;;;;;;4948149;28;96493;-58
2022/01/12 03:29:24;;;;;;;;;;;24.70;56.20;;;;;;4948471;28;96657;-60
2022/01/12 03:31:57;;;;;;;;;;;24.70;56.30;;;;;;4941120;28;97709;-57
2022/01/12 03:34:31;;;;;;;;;;;24.70;56.10;;;;;;4948475;28;98340;-58
2022/01/12 04:16:07;;;;;;;;;;;24.90;56.30;;;;;;4957908;28;96656;-62
2022/01/12 04:18:41;;;;;;;;;;;24.90;56.30;;;;;;4948864;28;96319;-60
2022/01/12 04:21:13;;;;;;;;;;;24.90;55.90;;;;;;4965771;28;97571;-60
2022/01/12 04:23:47;;;;;;;;;;;24.90;56.20;;;;;;4963813;28;95931;-60
2022/01/12 04:26:18;;;;;;;;;;;24.90;56.10;;;;;;4953239;28;95482;-61
2022/01/12 04:28:48;;;;;;;;;;;24.90;56.00;;;;;;4967177;28;96882;-59
2022/01/12 04:31:19;;;;;;;;;;;24.90;55.80;;;;;;4946436;28;95742;-60
2022/01/12 04:33:48;;;;;;;;;;;24.90;55.60;;;;;;4968952;28;96024;-59
2022/01/12 04:36:18;;;;;;;;;;;24.90;55.40;;;;;;4948792;28;97075;-61
2022/01/12 04:38:47;;;;;;;;;;;24.90;55.30;;;;;;4949178;28;96201;-59
2022/01/12 04:41:17;;;;;;;;;;;24.90;55.10;;;;;;4967705;28;97088;-61
2022/01/12 04:43:48;;;;;;;;;;;24.90;55.10;;;;;;4953659;28;95807;-61
2022/01/12 04:46:50;;;;;;;;;;;24.80;54.80;;;;;;4959499;28;98804;-59
2022/01/12 04:51:56;;;;;;;;;;;24.80;54.70;;;;;;4869484;28;2606123;-59
2022/01/12 04:54:26;;;;;;;;;;;24.80;55.00;;;;;;4963559;28;96644;-60
2022/01/12 04:56:57;;;;;;;;;;;24.90;55.40;;;;;;4963822;28;95709;-59
2022/01/12 04:59:30;;;;;;;;;;;25.10;55.00;;;;;;4979265;28;97262;-56
2022/01/12 05:06:18;;;;;;;;;;;25.10;54.50;;;;;;4940435;28;95969;-61
2022/01/12 05:07:57;;;;;;;;;;;25.20;54.60;;;;;;4956414;28;95769;-62
2022/01/12 05:13:01;;;;;;;;;;;25.20;53.90;;;;;;4963592;28;95872;-65
2022/01/12 05:15:36;;;;;;;;;;;25.20;53.60;;;;;;4940910;28;98027;-60
2022/01/12 05:18:09;;;;;;;;;;;25.20;53.40;;;;;;4946317;28;95587;-61
2022/01/12 05:20:41;;;;;;;;;;;25.20;53.40;;;;;;4958995;28;96342;-60
2022/01/12 05:23:13;;;;;;;;;;;25.20;54.10;;;;;;4960090;28;96366;-60
2022/01/12 05:25:46;;;;;;;;;;;25.30;53.40;;;;;;4963166;28;95527;-63
2022/01/12 05:28:16;;;;;;;;;;;25.30;53.10;;;;;;4951293;28;95420;-61
2022/01/12 05:30:49;;;;;;;;;;;25.30;53.00;;;;;;4938769;28;99238;-60
2022/01/12 05:33:22;;;;;;;;;;;25.30;53.40;;;;;;4946411;28;96019;-62
2022/01/12 05:35:56;;;;;;;;;;;25.30;52.50;;;;;;4959577;28;97101;-59
2022/01/12 05:38:27;;;;;;;;;;;25.30;52.10;;;;;;4945476;28;95768;-61
2022/01/12 05:40:59;;;;;;;;;;;25.40;51.90;;;;;;4929425;28;97065;-61
2022/01/12 05:43:31;;;;;;;;;;;25.40;52.10;;;;;;4961330;28;97842;-61
2022/01/12 05:46:09;;;;;;;;;;;25.30;51.50;;;;;;4939976;28;96226;-61
2022/01/12 05:51:46;;;;;;;;;;;25.40;51.40;;;;;;4957214;28;98315;-58
2022/01/12 05:54:17;;;;;;;;;;;25.50;51.10;;;;;;4947507;28;95850;-60
2022/01/12 05:56:48;;;;;;;;;;;25.50;51.20;;;;;;4933556;28;95374;-58
2022/01/12 05:59:19;;;;;;;;;;;25.50;51.00;;;;;;4962877;28;95888;-60
2022/01/12 06:01:51;;;;;;;;;;;25.50;50.40;;;;;;4939008;28;96013;-61
2022/01/12 06:04:20;;;;;;;;;;;25.50;50.20;;;;;;4944682;28;97800;-62
2022/01/12 06:06:50;;;;;;;;;;;25.40;50.10;;;;;;4949980;28;100044;-57
2022/01/12 06:09:22;;;;;;;;;;;25.40;51.00;;;;;;4944740;28;95821;-60
2022/01/12 06:11:53;;;;;;;;;;;25.50;50.30;;;;;;4945327;28;96086;-61
2022/01/12 06:14:23;;;;;;;;;;;25.50;50.30;;;;;;4944420;28;96213;-58
2022/01/12 06:16:54;;;;;;;;;;;25.50;50.20;;;;;;4953400;28;96989;-60
2022/01/12 06:19:25;;;;;;;;;;;25.30;50.00;;;;;;4944611;28;95704;-63
2022/01/12 06:22:11;;;;;;;;;;;25.30;50.00;;;;;;4976075;28;96090;-60
2022/01/12 06:24:43;;;;;;;;;;;25.30;49.90;;;;;;4957252;28;97847;-61
2022/01/12 06:27:16;;;;;;;;;;;25.20;50.60;;;;;;4945542;28;96094;-63
2022/01/12 06:30:03;;;;;;;;;;;25.20;49.70;;;;;;4948767;28;95874;-60
2022/01/12 06:32:34;;;;;;;;;;;25.20;50.00;;;;;;4939995;28;97041;-57
2022/01/12 06:35:03;;;;;;;;;;;25.30;50.10;;;;;;4943998;28;97347;-60
2022/01/12 06:37:32;;;;;;;;;;;25.50;49.80;;;;;;4945889;28;95783;-60
2022/01/12 06:40:03;;;;;;;;;;;25.50;49.40;;;;;;4946908;28;95842;-58
2022/01/12 06:42:33;;;;;;;;;;;25.60;49.40;;;;;;4960500;28;98370;-59
2022/01/12 06:45:10;;;;;;;;;;;25.80;49.00;;;;;;4938136;28;95448;-59
2022/01/12 06:47:44;;;;;;;;;;;25.80;48.80;;;;;;4946119;28;95900;-60
2022/01/12 06:50:18;;;;;;;;;;;25.90;48.10;;;;;;4940951;28;96023;-56
2022/01/12 06:52:52;;;;;;;;;;;25.80;47.70;;;;;;4960124;28;96276;-59
2022/01/12 06:55:23;;;;;;;;;;;25.80;47.60;;;;;;4959623;28;98143;-57
2022/01/12 06:57:54;;;;;;;;;;;25.80;47.70;;;;;;4942311;28;97445;-58
2022/01/12 07:00:25;;;;;;;;;;;25.70;47.70;;;;;;4934876;28;95951;-59
2022/01/12 07:02:56;;;;;;;;;;;25.70;47.70;;;;;;4958101;28;98347;-58
2022/01/12 07:05:34;;;;;;;;;;;25.60;47.70;;;;;;4949621;28;95780;-58
2022/01/12 07:08:05;;;;;;;;;;;25.60;45.90;;;;;;4966298;28;95871;-57
2022/01/12 07:10:40;;;;;;;;;;;25.50;47.90;;;;;;4958983;28;95413;-59
2022/01/12 07:13:17;;;;;;;;;;;25.60;47.80;;;;;;4939479;28;96824;-60
2022/01/12 07:15:48;;;;;;;;;;;25.50;47.60;;;;;;4932781;28;96363;-59
2022/01/12 07:18:24;;;;;;;;;;;25.50;47.50;;;;;;4967352;28;95906;-56
2022/01/12 07:20:54;;;;;;;;;;;25.50;47.40;;;;;;4944019;28;96210;-56
2022/01/12 07:23:26;;;;;;;;;;;25.50;47.40;;;;;;4944000;28;96854;-58
2022/01/12 07:25:57;;;;;;;;;;;25.40;47.60;;;;;;4943815;28;96082;-58
2022/01/12 07:28:26;;;;;;;;;;;25.40;47.60;;;;;;4945416;28;95303;-57
2022/01/12 07:30:56;;;;;;;;;;;25.40;48.10;;;;;;4936744;28;96548;-58
2022/01/12 07:33:26;;;;;;;;;;;25.40;48.50;;;;;;4941639;28;96739;-57
2022/01/12 07:35:57;;;;;;;;;;;25.50;48.50;;;;;;4943982;28;95741;-60
2022/01/12 07:38:27;;;;;;;;;;;25.50;48.60;;;;;;4945159;28;96745;-60
2022/01/12 07:40:56;;;;;;;;;;;25.50;49.40;;;;;;4945436;28;95984;-59
2022/01/12 07:43:26;;;;;;;;;;;25.50;49.30;;;;;;4946399;28;96126;-60
2022/01/12 07:45:56;;;;;;;;;;;25.50;49.60;;;;;;4972226;28;98030;-57
2022/01/12 07:48:29;;;;;;;;;;;25.50;49.30;;;;;;4947508;28;96005;-57
2022/01/12 07:51:01;;;;;;;;;;;25.40;49.50;;;;;;4977047;28;96273;-59
2022/01/12 07:53:33;;;;;;;;;;;25.50;49.90;;;;;;4947196;28;96395;-57
2022/01/12 07:56:06;;;;;;;;;;;25.60;50.00;;;;;;4934419;28;95858;-56
2022/01/12 07:58:37;;;;;;;;;;;25.60;50.10;;;;;;4947630;28;95924;-57
2022/01/12 08:01:08;;;;;;;;;;;25.60;50.10;;;;;;4939410;28;96289;-58
2022/01/12 08:03:37;;;;;;;;;;;25.70;50.20;;;;;;4946505;28;96964;-59
2022/01/12 08:06:07;;;;;;;;;;;25.70;50.40;;;;;;4936822;28;98916;-58
2022/01/12 08:08:38;;;;;;;;;;;25.80;50.50;;;;;;4958971;28;96259;-58
2022/01/12 08:11:09;;;;;;;;;;;25.80;50.60;;;;;;4947241;28;96554;-60
2022/01/12 08:13:39;;;;;;;;;;;25.80;50.70;;;;;;4947678;28;96368;-60
2022/01/12 08:16:09;;;;;;;;;;;25.80;50.80;;;;;;4940735;28;96731;-60
2022/01/12 08:18:40;;;;;;;;;;;25.80;50.90;;;;;;4949177;28;96185;-60
2022/01/12 08:21:11;;;;;;;;;;;25.80;51.00;;;;;;4946700;28;96796;-59
2022/01/12 08:23:42;;;;;;;;;;;25.90;51.20;;;;;;4945313;28;96905;-58
2022/01/12 08:26:13;;;;;;;;;;;25.90;51.30;;;;;;4961526;28;96635;-58
2022/01/12 08:28:43;;;;;;;;;;;25.90;51.40;;;;;;4947376;28;96518;-58
2022/01/12 08:31:14;;;;;;;;;;;25.80;51.40;;;;;;4935048;28;96061;-59
2022/01/12 08:33:44;;;;;;;;;;;25.80;51.50;;;;;;4927798;28;96165;-56
2022/01/12 08:36:14;;;;;;;;;;;25.90;51.70;;;;;;4928468;28;96162;-58
2022/01/12 08:38:43;;;;;;;;;;;25.80;51.70;;;;;;4926922;28;96439;-59
2022/01/12 08:41:14;;;;;;;;;;;25.90;52.00;;;;;;4957234;28;96544;-58
2022/01/12 08:43:43;;;;;;;;;;;25.90;52.00;;;;;;4926542;28;97665;-59
2022/01/12 08:46:14;;;;;;;;;;;25.90;52.10;;;;;;4927664;28;95813;-59
2022/01/12 08:48:48;;;;;;;;;;;25.90;52.20;;;;;;4944659;28;95464;-58
2022/01/12 08:51:20;;;;;;;;;;;25.90;52.30;;;;;;4947044;28;95771;-60
2022/01/12 08:53:51;;;;;;;;;;;25.90;52.40;;;;;;4945740;28;95953;-60
2022/01/12 08:56:24;;;;;;;;;;;25.90;52.50;;;;;;4943920;28;95977;-57
2022/01/12 08:58:55;;;;;;;;;;;25.90;52.70;;;;;;4946295;28;95760;-60
2022/01/12 09:01:26;;;;;;;;;;;25.90;52.80;;;;;;4939541;28;96477;-59
2022/01/12 09:03:57;;;;;;;;;;;25.90;52.90;;;;;;4947124;28;96337;-57
2022/01/12 09:06:28;;;;;;;;;;;25.90;53.00;;;;;;4935927;28;95990;-56
2022/01/12 09:08:59;;;;;;;;;;;25.90;53.10;;;;;;4943576;28;96785;-58
2022/01/12 09:11:29;;;;;;;;;;;25.90;53.30;;;;;;4946252;28;95304;-60
2022/01/12 09:14:00;;;;;;;;;;;25.90;53.40;;;;;;4944788;28;95991;-59
2022/01/12 09:16:32;;;;;;;;;;;25.90;53.50;;;;;;4930392;28;95873;-58
2022/01/12 09:19:03;;;;;;;;;;;25.90;53.60;;;;;;4927074;28;95825;-60
2022/01/12 09:21:34;;;;;;;;;;;25.90;53.70;;;;;;4927923;28;96468;-57
2022/01/12 09:24:04;;;;;;;;;;;25.90;53.80;;;;;;4927515;28;96020;-59
2022/01/12 09:26:34;;;;;;;;;;;25.90;54.00;;;;;;4927197;28;95789;-59
2022/01/12 09:29:04;;;;;;;;;;;25.80;54.00;;;;;;4926523;28;95968;-59
2022/01/12 09:31:35;;;;;;;;;;;25.80;54.10;;;;;;4920109;28;95429;-60
2022/01/12 09:34:05;;;;;;;;;;;25.90;54.30;;;;;;4926957;28;95980;-59
2022/01/12 09:36:35;;;;;;;;;;;25.80;54.30;;;;;;4927314;28;95817;-60
2022/01/12 09:39:06;;;;;;;;;;;25.80;54.40;;;;;;4928163;28;95849;-60
2022/01/12 09:41:39;;;;;;;;;;;25.80;54.50;;;;;;4926354;28;95702;-59
2022/01/12 09:44:08;;;;;;;;;;;25.80;54.60;;;;;;4925886;28;96095;-61
2022/01/12 09:46:39;;;;;;;;;;;25.80;54.70;;;;;;4927283;28;96697;-60
2022/01/12 09:49:09;;;;;;;;;;;25.80;54.80;;;;;;4945934;28;96032;-61
2022/01/12 09:51:40;;;;;;;;;;;25.80;55.20;;;;;;4945377;28;96577;-61
2022/01/12 09:54:12;;;;;;;;;;;25.80;57.80;;;;;;4946556;28;96005;-60
2022/01/12 09:56:42;;;;;;;;;;;25.80;58.50;;;;;;4946626;28;95697;-59
2022/01/12 09:59:14;;;;;;;;;;;25.70;58.90;;;;;;4945972;28;95469;-62
2022/01/12 10:01:47;;;;;;;;;;;25.70;58.90;;;;;;4938601;28;95294;-59
2022/01/12 10:04:18;;;;;;;;;;;25.60;59.30;;;;;;4944647;28;97147;-56
2022/01/12 10:06:52;;;;;;;;;;;25.60;59.80;;;;;;4935995;28;95838;-61
2022/01/12 10:09:40;;;;;;;;;;;25.50;59.80;;;;;;4945777;28;95654;-61
2022/01/12 10:12:14;;;;;;;;;;;25.50;60.10;;;;;;4945452;28;96496;-58
2022/01/12 10:14:51;;;;;;;;;;;25.40;60.30;;;;;;4943071;28;96067;-56
2022/01/12 10:17:41;;;;;;;;;;;25.30;60.40;;;;;;4937773;28;96422;-58
2022/01/12 10:20:19;;;;;;;;;;;25.30;60.60;;;;;;4942684;28;95965;-60
2022/01/12 10:23:09;;;;;;;;;;;25.20;60.70;;;;;;4945692;28;96077;-60
2022/01/12 10:25:44;;;;;;;;;;;25.20;60.80;;;;;;4944472;28;96068;-60
2022/01/12 10:28:18;;;;;;;;;;;25.20;61.00;;;;;;4943315;28;97707;-61
2022/01/12 10:31:01;;;;;;;;;;;25.20;61.10;;;;;;4938658;28;95996;-60
2022/01/12 10:33:32;;;;;;;;;;;25.10;61.10;;;;;;4946780;28;96408;-63
2022/01/12 10:36:03;;;;;;;;;;;25.10;61.20;;;;;;4946588;28;96381;-60
2022/01/12 10:38:35;;;;;;;;;;;25.00;61.30;;;;;;4943874;28;97730;-58
2022/01/12 10:41:05;;;;;;;;;;;25.00;61.50;;;;;;4946360;28;95770;-59
2022/01/12 10:43:39;;;;;;;;;;;25.00;61.60;;;;;;4946395;28;96482;-63
2022/01/12 10:46:17;;;;;;;;;;;25.00;61.60;;;;;;4938208;28;95824;-63
2022/01/12 10:48:51;;;;;;;;;;;24.90;61.60;;;;;;4945991;28;98257;-60
2022/01/12 10:51:25;;;;;;;;;;;24.90;61.70;;;;;;4946215;28;95311;-62
2022/01/12 10:54:04;;;;;;;;;;;24.90;61.80;;;;;;4961569;28;96035;-62
2022/01/12 10:56:34;;;;;;;;;;;24.80;61.80;;;;;;4948013;28;96140;-62
2022/01/12 10:59:07;;;;;;;;;;;24.30;61.00;;;;;;4947251;28;95715;-64
2022/01/12 11:01:38;;;;;;;;;;;24.00;62.30;;;;;;4937668;28;95395;-53
2022/01/12 11:04:08;;;;;;;;;;;24.00;62.50;;;;;;4947564;28;95124;-64
2022/01/12 11:06:39;;;;;;;;;;;23.80;61.90;;;;;;4938244;28;96536;-62
2022/01/12 11:09:10;;;;;;;;;;;23.80;62.00;;;;;;4946350;28;96336;-65
2022/01/12 11:11:41;;;;;;;;;;;23.70;62.90;;;;;;4963835;28;95377;-66
2022/01/12 11:14:13;;;;;;;;;;;23.50;63.30;;;;;;4950393;28;95996;-66
2022/01/12 11:16:43;;;;;;;;;;;23.40;64.20;;;;;;4943008;28;96335;-73
2022/01/12 11:19:18;;;;;;;;;;;23.20;64.60;;;;;;4964908;28;97925;-63
2022/01/12 11:21:57;;;;;;;;;;;23.20;66.20;;;;;;4967683;28;96098;-64
2022/01/12 11:24:28;;;;;;;;;;;23.30;65.00;;;;;;4950379;28;95844;-64
2022/01/12 11:27:03;;;;;;;;;;;23.20;65.50;;;;;;4950881;28;96071;-64
2022/01/12 11:29:36;;;;;;;;;;;23.00;65.80;;;;;;4950486;28;96594;-64
2022/01/12 11:32:11;;;;;;;;;;;23.10;65.80;;;;;;4943454;28;96028;-64
2022/01/12 11:34:41;;;;;;;;;;;23.10;65.70;;;;;;4949447;28;96072;-64
2022/01/12 11:37:15;;;;;;;;;;;22.90;65.70;;;;;;4952830;28;96069;-64
2022/01/12 11:39:45;;;;;;;;;;;22.80;66.50;;;;;;4951887;28;96177;-64
2022/01/12 11:42:14;;;;;;;;;;;22.80;66.70;;;;;;4952019;28;95261;-64
2022/01/12 11:44:44;;;;;;;;;;;22.80;66.90;;;;;;4952609;28;95793;-64
2022/01/12 11:47:16;;;;;;;;;;;22.80;66.80;;;;;;4944070;28;95995;-65
2022/01/12 11:49:52;;;;;;;;;;;22.80;66.80;;;;;;4951015;28;97516;-64
2022/01/12 11:52:26;;;;;;;;;;;22.70;66.80;;;;;;4950674;28;95596;-64
2022/01/12 11:55:10;;;;;;;;;;;22.60;66.70;;;;;;4960713;28;95941;-63
2022/01/12 11:57:42;;;;;;;;;;;22.60;67.20;;;;;;4953411;28;96148;-64
2022/01/12 12:00:14;;;;;;;;;;;22.60;67.10;;;;;;4948136;28;96469;-64
2022/01/12 12:02:50;;;;;;;;;;;22.40;66.90;;;;;;4945588;28;95486;-62
2022/01/12 12:05:27;;;;;;;;;;;22.50;68.00;;;;;;4945084;28;95758;-64
2022/01/12 12:08:03;;;;;;;;;;;22.40;68.20;;;;;;4978942;28;98640;-64
2022/01/12 12:10:34;;;;;;;;;;;22.60;68.80;;;;;;4951412;28;97871;-62
2022/01/12 12:13:05;;;;;;;;;;;22.80;68.80;;;;;;4953805;28;95718;-65
2022/01/12 12:15:35;;;;;;;;;;;23.00;68.60;;;;;;4949829;28;96707;-63
2022/01/12 12:18:07;;;;;;;;;;;23.20;68.00;;;;;;4954591;28;95918;-67
2022/01/12 12:20:38;;;;;;;;;;;23.40;68.00;;;;;;4953775;28;97166;-62
2022/01/12 12:23:09;;;;;;;;;;;23.40;67.50;;;;;;4953677;28;95241;-63
2022/01/12 12:25:40;;;;;;;;;;;23.50;67.30;;;;;;4985856;28;96210;-62
2022/01/12 12:28:13;;;;;;;;;;;23.60;67.00;;;;;;4968869;28;95884;-61
2022/01/12 12:30:43;;;;;;;;;;;23.70;66.60;;;;;;4946696;28;98579;-66
2022/01/12 12:33:14;;;;;;;;;;;23.80;66.30;;;;;;4955785;28;95319;-65
2022/01/12 12:35:44;;;;;;;;;;;23.90;66.00;;;;;;4955108;28;95838;-66
2022/01/12 12:38:16;;;;;;;;;;;24.10;65.60;;;;;;4954579;28;96439;-67
2022/01/12 12:40:49;;;;;;;;;;;24.20;65.10;;;;;;4953942;28;98519;-66
2022/01/12 12:43:25;;;;;;;;;;;24.20;64.80;;;;;;4956233;28;95228;-66
2022/01/12 12:46:05;;;;;;;;;;;24.40;64.50;;;;;;4941594;28;95915;-68
2022/01/12 12:48:37;;;;;;;;;;;24.40;64.20;;;;;;4935305;28;95990;-67
2022/01/12 12:51:11;;;;;;;;;;;24.40;64.00;;;;;;4932141;28;95923;-66
2022/01/12 12:53:46;;;;;;;;;;;24.40;63.90;;;;;;4935976;28;95733;-66
2022/01/12 12:56:20;;;;;;;;;;;24.40;63.80;;;;;;4935989;28;95795;-67
2022/01/12 12:58:52;;;;;;;;;;;24.40;63.60;;;;;;4935241;28;96546;-62
2022/01/12 13:01:25;;;;;;;;;;;24.60;63.30;;;;;;4935517;28;95846;-66
2022/01/12 13:03:58;;;;;;;;;;;24.60;62.40;;;;;;4955359;28;95677;-64
2022/01/12 13:06:33;;;;;;;;;;;24.60;63.00;;;;;;4962719;28;95702;-65
2022/01/12 13:09:09;;;;;;;;;;;24.60;62.70;;;;;;4954141;28;95653;-66
2022/01/12 13:11:40;;;;;;;;;;;24.70;62.40;;;;;;4953114;28;96086;-67
2022/01/12 13:14:13;;;;;;;;;;;24.70;62.60;;;;;;4953416;28;97776;-66
2022/01/12 13:16:52;;;;;;;;;;;24.70;62.50;;;;;;4974608;28;95477;-62
2022/01/12 13:21:07;;;;;;;;;;;24.60;62.20;;;;;;4953453;28;95508;-64
2022/01/12 13:22:32;;;;;;;;;;;24.60;62.40;;;;;;4968021;28;95742;-65
2022/01/12 13:25:08;;;;;;;;;;;24.70;62.50;;;;;;4953248;28;95739;-65
2022/01/12 13:27:38;;;;;;;;;;;24.60;62.40;;;;;;4951567;28;95628;-66
2022/01/12 13:30:09;;;;;;;;;;;24.60;62.50;;;;;;4951629;28;96028;-64
2022/01/12 13:32:40;;;;;;;;;;;24.60;62.70;;;;;;4949655;28;96787;-65
2022/01/12 13:35:12;;;;;;;;;;;24.60;62.50;;;;;;4946788;28;95965;-61
2022/01/12 13:37:42;;;;;;;;;;;24.60;62.30;;;;;;4952351;28;95989;-63
2022/01/12 13:40:33;;;;;;;;;;;24.60;62.40;;;;;;4952335;28;96735;-68
2022/01/12 13:43:03;;;;;;;;;;;24.70;62.30;;;;;;4952538;28;95945;-62
2022/01/12 13:45:42;;;;;;;;;;;24.80;62.30;;;;;;4943539;28;95694;-64
2022/01/12 13:48:17;;;;;;;;;;;24.90;62.00;;;;;;4950701;28;95950;-65
2022/01/12 13:50:55;;;;;;;;;;;24.90;62.00;;;;;;4951345;28;95864;-63
2022/01/12 13:53:32;;;;;;;;;;;24.90;61.80;;;;;;4951428;28;98285;-66
2022/01/12 13:56:06;;;;;;;;;;;25.00;61.50;;;;;;4950943;28;95905;-64
2022/01/12 13:58:38;;;;;;;;;;;24.90;61.40;;;;;;4968720;28;95947;-66
2022/01/12 14:01:12;;;;;;;;;;;25.00;61.40;;;;;;4944775;28;98570;-66
2022/01/12 14:03:55;;;;;;;;;;;24.90;61.30;;;;;;4950858;28;95793;-67
2022/01/12 14:06:28;;;;;;;;;;;25.00;61.20;;;;;;4942151;28;95808;-67
2022/01/12 14:09:00;;;;;;;;;;;25.00;61.20;;;;;;4950918;28;95917;-66
2022/01/12 14:11:34;;;;;;;;;;;25.10;61.10;;;;;;4966433;28;96511;-66
2022/01/12 14:14:03;;;;;;;;;;;25.10;61.00;;;;;;4951611;28;95872;-65
2022/01/12 14:16:37;;;;;;;;;;;25.00;60.80;;;;;;4945986;28;96022;-61
2022/01/12 14:19:09;;;;;;;;;;;25.00;60.80;;;;;;4963224;28;95957;-65
2022/01/12 14:21:52;;;;;;;;;;;25.00;60.30;;;;;;4964866;28;96372;-66
2022/01/12 14:24:23;;;;;;;;;;;24.90;60.10;;;;;;4952126;28;95329;-64
2022/01/12 14:26:53;;;;;;;;;;;24.70;60.40;;;;;;4953083;28;95781;-64
2022/01/12 14:29:23;;;;;;;;;;;24.50;60.50;;;;;;4959392;28;95687;-66
2022/01/12 14:31:52;;;;;;;;;;;24.40;61.10;;;;;;4946186;28;95849;-61
2022/01/12 14:34:23;;;;;;;;;;;24.20;61.40;;;;;;4946634;28;97111;-62
2022/01/12 14:36:54;;;;;;;;;;;24.10;61.70;;;;;;4934611;28;95436;-61
2022/01/12 14:39:24;;;;;;;;;;;24.00;60.40;;;;;;4949072;28;95668;-63
2022/01/12 14:41:55;;;;;;;;;;;23.80;62.10;;;;;;4954929;28;96537;-62
2022/01/12 14:44:29;;;;;;;;;;;23.80;62.40;;;;;;4949932;28;97448;-61
2022/01/12 14:47:00;;;;;;;;;;;23.70;62.60;;;;;;4940674;28;95801;-60
2022/01/12 14:49:31;;;;;;;;;;;23.60;62.70;;;;;;4953598;28;98184;-62
2022/01/12 14:52:02;;;;;;;;;;;23.50;63.00;;;;;;4951839;28;95762;-62
2022/01/12 14:54:35;;;;;;;;;;;23.40;63.10;;;;;;4953561;28;96324;-59
2022/01/12 14:57:06;;;;;;;;;;;23.40;63.40;;;;;;4948613;28;96526;-61
2022/01/12 14:59:37;;;;;;;;;;;23.30;63.70;;;;;;4946829;28;95362;-62
2022/01/12 15:02:08;;;;;;;;;;;23.10;64.00;;;;;;4939245;28;99068;-60
2022/01/12 15:04:39;;;;;;;;;;;23.10;64.10;;;;;;4948334;28;96431;-61
2022/01/12 15:07:10;;;;;;;;;;;23.00;64.30;;;;;;4940563;28;96045;-61
2022/01/12 15:09:42;;;;;;;;;;;23.00;64.40;;;;;;4939919;28;98611;-62
2022/01/12 15:12:18;;;;;;;;;;;22.90;64.50;;;;;;4946339;28;97352;-61
2022/01/12 15:14:58;;;;;;;;;;;22.80;64.60;;;;;;4953432;28;96052;-62
2022/01/12 15:17:31;;;;;;;;;;;22.80;65.10;;;;;;4929204;28;96028;-62
2022/01/12 15:20:04;;;;;;;;;;;22.80;65.10;;;;;;4933759;28;95920;-60
2022/01/12 15:22:36;;;;;;;;;;;22.80;65.30;;;;;;4934250;28;96400;-61
2022/01/12 15:25:07;;;;;;;;;;;22.70;65.50;;;;;;4933320;28;96065;-61
2022/01/12 15:27:38;;;;;;;;;;;22.60;65.60;;;;;;4932514;28;95982;-61
2022/01/12 15:30:10;;;;;;;;;;;22.60;65.70;;;;;;4928972;28;95290;-62
2022/01/12 15:32:47;;;;;;;;;;;22.60;65.80;;;;;;4957406;28;96402;-61
2022/01/12 15:35:18;;;;;;;;;;;22.50;66.00;;;;;;4953811;28;95829;-61
2022/01/12 15:37:48;;;;;;;;;;;22.50;66.10;;;;;;4953852;28;95633;-62
2022/01/12 15:40:18;;;;;;;;;;;22.50;66.40;;;;;;4953895;28;95293;-61
2022/01/12 15:42:47;;;;;;;;;;;22.40;66.30;;;;;;4950713;28;96920;-60
2022/01/12 15:45:17;;;;;;;;;;;22.40;66.50;;;;;;4952252;28;96035;-62
2022/01/12 15:47:53;;;;;;;;;;;22.40;66.40;;;;;;4951974;28;95727;-61
2022/01/12 15:50:25;;;;;;;;;;;22.40;66.80;;;;;;4953795;28;95349;-62
2022/01/12 15:52:57;;;;;;;;;;;22.30;66.80;;;;;;4954275;28;95996;-61
2022/01/12 15:55:29;;;;;;;;;;;22.30;67.50;;;;;;4953719;28;96085;-60
2022/01/12 15:58:02;;;;;;;;;;;22.30;67.10;;;;;;4953258;28;97260;-61
2022/01/12 16:00:35;;;;;;;;;;;22.30;67.20;;;;;;4944925;28;95395;-61
2022/01/12 16:03:06;;;;;;;;;;;22.20;67.10;;;;;;4953648;28;96121;-61
2022/01/12 16:05:37;;;;;;;;;;;22.20;67.40;;;;;;4952330;28;96090;-59
2022/01/12 16:08:08;;;;;;;;;;;22.20;67.50;;;;;;4947257;28;98041;-61
2022/01/12 16:10:41;;;;;;;;;;;22.10;67.70;;;;;;4945016;28;95420;-61
2022/01/12 16:13:11;;;;;;;;;;;22.10;67.80;;;;;;4953310;28;96433;-62
2022/01/12 16:16:03;;;;;;;;;;;22.10;67.80;;;;;;4942605;28;95861;-62
2022/01/12 16:18:35;;;;;;;;;;;22.10;67.90;;;;;;4952041;28;95345;-61
2022/01/12 16:21:06;;;;;;;;;;;22.00;67.90;;;;;;4950648;28;95366;-62
2022/01/12 16:23:36;;;;;;;;;;;22.00;68.10;;;;;;4948251;28;96537;-60
2022/01/12 16:26:08;;;;;;;;;;;22.10;68.30;;;;;;4951435;28;96777;-60
2022/01/12 16:28:38;;;;;;;;;;;22.00;68.30;;;;;;4983442;28;95853;-61
2022/01/12 16:31:19;;;;;;;;;;;22.00;68.40;;;;;;4942472;28;95701;-62